Time;durP1;ratioP1;P1;durP2;ratioP2;P2;SDS_P1;SDS_P2;PMS_P1;PMS_P2;Temp;Humidity;BMP_temperature;BMP_pressure;BME280_temperature;BME280_humidity;BME280_pressure;Samples;Min_cycle;Max_cycle;Signal;HPM_P1;HPM_P2
2022/09/23 00:01:34;;;;;;;18.00;11.88;;;19.70;88.60;;;;;;10152749;29;20231;-83
2022/09/23 00:06:38;;;;;;;17.73;11.93;;;19.70;88.30;;;;;;10129435;29;20268;-84
2022/09/23 00:11:41;;;;;;;20.40;13.07;;;19.70;88.10;;;;;;10089380;29;20256;-83
2022/09/23 00:16:43;;;;;;;18.63;11.63;;;19.70;87.90;;;;;;10117719;29;20243;-83
2022/09/23 00:21:46;;;;;;;16.77;12.15;;;19.70;87.70;;;;;;10136160;29;20227;-83
2022/09/23 00:26:48;;;;;;;18.03;12.17;;;19.70;87.60;;;;;;10152082;29;20695;-83
2022/09/23 00:31:51;;;;;;;17.55;11.55;;;19.70;87.40;;;;;;10168789;29;20672;-83
2022/09/23 00:36:54;;;;;;;20.10;12.25;;;19.70;87.20;;;;;;10078789;29;20311;-83
2022/09/23 00:41:57;;;;;;;13.90;10.63;;;19.60;86.90;;;;;;10113319;29;20232;-83
2022/09/23 00:46:59;;;;;;;18.47;12.00;;;19.60;86.80;;;;;;10150099;29;20239;-83
2022/09/23 00:52:08;;;;;;;16.00;12.00;;;19.60;86.70;;;;;;10097494;29;20267;-83
2022/09/23 00:57:14;;;;;;;15.70;11.03;;;19.60;86.50;;;;;;10148027;29;20806;-83
2022/09/23 01:02:19;;;;;;;16.17;11.38;;;19.60;86.40;;;;;;10163990;29;20224;-83
2022/09/23 01:07:22;;;;;;;16.93;11.87;;;19.60;86.20;;;;;;10129731;29;20683;-83
2022/09/23 01:13:06;;;;;;;13.00;9.98;;;19.60;86.00;;;;;;10135847;29;20240;-83
2022/09/23 01:18:33;;;;;;;13.57;9.90;;;19.60;85.90;;;;;;10102015;29;20289;-84
2022/09/23 01:24:04;;;;;;;17.90;10.90;;;19.60;85.80;;;;;;10176121;29;20717;-83
2022/09/23 01:29:51;;;;;;;15.70;10.70;;;19.60;85.70;;;;;;10163739;29;20272;-83
2022/09/23 01:35:08;;;;;;;14.83;10.80;;;19.60;85.40;;;;;;10127845;29;20240;-82
2022/09/23 01:40:22;;;;;;;15.07;9.68;;;19.60;85.30;;;;;;10113145;29;20259;-81
2022/09/23 01:45:30;;;;;;;14.90;10.57;;;19.50;84.90;;;;;;10136437;29;20680;-81
2022/09/23 01:50:55;;;;;;;13.82;9.77;;;19.60;84.90;;;;;;10113197;29;20858;-81
2022/09/23 01:56:04;;;;;;;13.53;9.50;;;19.50;84.70;;;;;;10080720;29;20261;-83
2022/09/23 02:01:10;;;;;;;12.73;9.73;;;19.50;84.40;;;;;;10123442;29;20280;-83
2022/09/23 02:06:36;;;;;;;13.43;9.57;;;19.50;84.30;;;;;;10128688;29;20271;-83
2022/09/23 02:11:44;;;;;;;11.48;9.20;;;19.50;84.10;;;;;;10112619;29;20709;-83
2022/09/23 02:17:02;;;;;;;12.43;9.03;;;19.50;84.00;;;;;;10094438;29;20244;-83
2022/09/23 02:22:19;;;;;;;12.20;9.63;;;19.50;83.60;;;;;;10133416;29;20234;-83
2022/09/23 02:27:53;;;;;;;17.03;9.50;;;19.50;83.60;;;;;;10127567;29;20237;-84
2022/09/23 02:33:06;;;;;;;15.37;9.90;;;19.50;83.40;;;;;;10125480;29;20240;-83
2022/09/23 02:38:21;;;;;;;13.05;8.43;;;19.50;83.20;;;;;;10097411;29;20252;-83
2022/09/23 02:43:34;;;;;;;11.93;8.60;;;19.50;83.00;;;;;;10117194;29;20212;-83
2022/09/23 02:48:44;;;;;;;12.37;9.03;;;19.40;82.80;;;;;;10134201;29;20268;-83
2022/09/23 02:53:46;;;;;;;12.03;8.67;;;19.50;82.70;;;;;;10133877;29;20236;-83
2022/09/23 02:58:51;;;;;;;11.23;8.37;;;19.40;82.40;;;;;;10103133;29;20301;-83
2022/09/23 03:03:57;;;;;;;12.77;9.13;;;19.40;82.20;;;;;;10116221;29;20768;-83
2022/09/23 03:09:20;;;;;;;13.20;8.37;;;19.40;82.10;;;;;;10122859;29;20243;-83
2022/09/23 03:14:49;;;;;;;11.23;8.37;;;19.40;81.80;;;;;;10171670;29;20303;-83
2022/09/23 03:20:05;;;;;;;10.37;8.50;;;19.40;81.70;;;;;;10134203;29;20315;-83
2022/09/23 03:25:14;;;;;;;12.67;8.30;;;19.40;81.40;;;;;;10116063;29;20802;-83
2022/09/23 03:30:17;;;;;;;12.03;8.37;;;19.40;81.30;;;;;;10130633;29;20295;-83
2022/09/23 03:35:23;;;;;;;9.82;7.30;;;19.40;81.00;;;;;;10164509;29;20239;-83
2022/09/23 03:40:28;;;;;;;12.23;8.25;;;19.50;80.80;;;;;;10145282;29;20252;-83
2022/09/23 03:45:32;;;;;;;9.77;7.47;;;19.40;80.50;;;;;;10114035;29;20264;-83
2022/09/23 03:50:35;;;;;;;10.45;7.22;;;19.40;80.30;;;;;;10131918;29;20232;-81
2022/09/23 03:55:38;;;;;;;9.20;7.55;;;19.40;80.20;;;;;;10113982;29;20240;-81
2022/09/23 04:00:41;;;;;;;9.65;7.25;;;19.40;80.20;;;;;;10130759;29;20250;-81
2022/09/23 04:05:44;;;;;;;13.37;7.53;;;19.30;80.20;;;;;;10130344;29;20228;-81
2022/09/23 04:10:46;;;;;;;11.13;8.27;;;19.30;80.20;;;;;;10150449;29;20290;-82
2022/09/23 04:15:55;;;;;;;7.82;6.72;;;19.30;79.90;;;;;;10156528;29;20684;-81
2022/09/23 04:21:01;;;;;;;11.17;7.37;;;19.30;79.80;;;;;;10124621;29;20689;-81
2022/09/23 04:26:04;;;;;;;11.93;6.90;;;19.30;79.50;;;;;;10091906;29;20269;-81
2022/09/23 04:31:08;;;;;;;7.50;6.23;;;19.30;79.30;;;;;;10083015;29;20273;-83
2022/09/23 04:36:10;;;;;;;8.70;6.78;;;19.30;79.00;;;;;;10101946;29;20259;-83
2022/09/23 04:41:14;;;;;;;8.05;6.43;;;19.30;78.80;;;;;;10147641;29;20287;-83
2022/09/23 04:46:16;;;;;;;8.77;6.67;;;19.30;79.10;;;;;;10149527;29;20307;-83
2022/09/23 04:51:23;;;;;;;9.03;6.60;;;19.30;78.40;;;;;;10130687;29;20699;-82
2022/09/23 04:56:28;;;;;;;10.13;6.57;;;19.30;78.20;;;;;;10137813;29;20305;-82
2022/09/23 05:01:33;;;;;;;7.97;6.13;;;19.40;78.00;;;;;;10117184;29;20252;-82
2022/09/23 05:06:36;;;;;;;15.93;7.50;;;19.40;77.80;;;;;;10113459;29;20295;-82
2022/09/23 05:11:39;;;;;;;28.57;13.30;;;19.30;66.40;;;;;;10150207;29;20232;-82
2022/09/23 05:16:41;;;;;;;19.97;10.67;;;17.20;67.10;;;;;;10116770;29;20250;-82
2022/09/23 05:21:44;;;;;;;18.00;11.17;;;17.80;68.00;;;;;;10129275;29;20264;-82
2022/09/23 05:26:47;;;;;;;15.50;10.47;;;18.30;65.70;;;;;;10129271;29;20254;-82
2022/09/23 05:31:49;;;;;;;22.77;11.43;;;18.50;63.80;;;;;;10127623;29;20272;-82
2022/09/23 05:36:51;;;;;;;20.63;10.50;;;18.70;63.30;;;;;;10128469;29;20236;-82
2022/09/23 05:41:54;;;;;;;18.97;11.07;;;18.80;62.80;;;;;;10112275;29;20292;-82
2022/09/23 05:46:57;;;;;;;18.53;10.10;;;18.90;62.90;;;;;;10121930;29;20691;-82
2022/09/23 05:52:00;;;;;;;17.23;9.97;;;18.90;63.10;;;;;;10095790;29;20276;-82
2022/09/23 05:57:02;;;;;;;22.67;10.20;;;19.00;63.10;;;;;;10125732;29;20240;-82
2022/09/23 06:02:08;;;;;;;18.97;10.40;;;19.00;63.40;;;;;;10087784;29;20260;-82
2022/09/23 06:07:11;;;;;;;15.35;10.07;;;19.10;63.70;;;;;;10120428;29;20763;-82
2022/09/23 06:12:13;;;;;;;15.43;10.10;;;19.10;64.10;;;;;;10134355;29;20243;-82
2022/09/23 06:17:16;;;;;;;24.27;11.53;;;19.10;64.50;;;;;;10096720;29;20923;-82
2022/09/23 06:22:18;;;;;;;17.15;10.02;;;19.10;65.00;;;;;;10116807;29;20260;-83
2022/09/23 06:27:20;;;;;;;16.10;9.80;;;19.10;65.50;;;;;;10134915;29;20204;-82
2022/09/23 06:32:23;;;;;;;17.47;12.67;;;19.10;65.90;;;;;;10133300;29;20236;-83
2022/09/23 06:37:26;;;;;;;20.83;10.97;;;;;;;;;;10117316;29;20620;-82
2022/09/23 06:42:29;;;;;;;15.37;9.60;;;12.70;99.90;;;;;;10133128;29;20669;-81
2022/09/23 06:47:31;;;;;;;17.00;10.63;;;16.60;99.40;;;;;;10117380;29;20295;-82
2022/09/23 06:52:34;;;;;;;12.93;9.73;;;17.80;93.40;;;;;;10133207;29;20263;-82
2022/09/23 06:57:38;;;;;;;23.67;11.43;;;18.30;90.10;;;;;;10125529;29;20244;-82
2022/09/23 07:02:41;;;;;;;52.13;19.70;;;18.40;91.60;;;;;;10124270;29;20721;-82
2022/09/23 07:07:43;;;;;;;41.43;14.60;;;14.90;99.90;;;;;;10126859;29;20231;-82
2022/09/23 07:12:46;;;;;;;44.80;16.70;;;17.20;99.90;;;;;;10118948;29;20272;-82
2022/09/23 07:17:48;;;;;;;38.83;15.63;;;17.90;99.90;;;;;;10121689;29;20236;-82
2022/09/23 07:22:51;;;;;;;39.33;16.77;;;18.40;99.90;;;;;;10109828;29;20637;-83
2022/09/23 07:27:55;;;;;;;49.10;17.13;;;18.70;99.90;;;;;;10111022;29;20300;-82
2022/09/23 07:32:57;;;;;;;33.23;16.63;;;19.00;99.90;;;;;;10113872;29;20256;-83
2022/09/23 07:38:00;;;;;;;35.30;15.25;;;19.20;99.90;;;;;;10126228;29;20251;-83
2022/09/23 07:43:04;;;;;;;34.63;15.80;;;19.30;99.90;;;;;;10099747;29;20244;-82
2022/09/23 07:48:06;;;;;;;28.42;14.90;;;19.50;99.90;;;;;;10126345;29;20236;-81
2022/09/23 07:53:09;;;;;;;30.58;15.80;;;19.60;99.90;;;;;;10127063;29;20263;-82
2022/09/23 07:58:11;;;;;;;29.55;15.35;;;19.70;99.90;;;;;;10109708;29;20661;-82
2022/09/23 08:03:13;;;;;;;33.00;16.23;;;19.70;99.90;;;;;;10127398;29;20227;-82
2022/09/23 08:08:16;;;;;;;26.98;15.32;;;19.80;99.90;;;;;;10108960;29;20228;-84
2022/09/23 08:13:18;;;;;;;28.95;15.68;;;19.90;99.90;;;;;;10106469;29;20304;-82
2022/09/23 08:18:21;;;;;;;24.73;13.93;;;20.00;99.90;;;;;;10109647;29;20232;-82
2022/09/23 08:23:23;;;;;;;25.45;15.50;;;20.10;99.90;;;;;;10126806;29;20229;-82
2022/09/23 08:28:27;;;;;;;27.10;15.25;;;20.10;99.90;;;;;;10125955;29;20232;-82
2022/09/23 08:33:29;;;;;;;20.08;13.70;;;20.20;99.90;;;;;;10109975;29;20351;-83
2022/09/23 08:38:32;;;;;;;22.50;14.18;;;20.20;99.90;;;;;;10124152;29;20355;-83
2022/09/23 08:43:36;;;;;;;21.42;14.43;;;20.20;99.90;;;;;;10109438;29;20695;-83
2022/09/23 08:48:45;;;;;;;19.75;13.15;;;20.10;99.90;;;;;;10124867;29;20683;-83
2022/09/23 08:53:47;;;;;;;22.43;13.73;;;20.10;99.90;;;;;;10126123;29;20320;-83
2022/09/23 08:59:03;;;;;;;22.60;13.93;;;20.20;99.90;;;;;;10124410;29;20251;-82
2022/09/23 09:04:16;;;;;;;23.30;14.43;;;20.30;99.90;;;;;;10101064;29;20235;-83
2022/09/23 09:09:30;;;;;;;19.57;13.10;;;20.30;99.90;;;;;;10123335;29;20228;-82
2022/09/23 09:15:01;;;;;;;15.90;12.15;;;20.30;99.90;;;;;;10109013;29;20247;-84
2022/09/23 09:20:28;;;;;;;18.50;12.73;;;20.40;99.90;;;;;;10125993;29;20700;-83
2022/09/23 09:25:36;;;;;;;22.75;12.68;;;20.40;99.90;;;;;;10107889;29;20239;-82
2022/09/23 09:30:39;;;;;;;18.42;11.45;;;20.30;99.90;;;;;;10114297;29;20296;-83
2022/09/23 09:36:09;;;;;;;15.05;11.90;;;20.30;99.90;;;;;;10113006;29;20239;-83
2022/09/23 09:41:16;;;;;;;18.25;11.60;;;20.40;99.90;;;;;;10128367;29;20731;-82
2022/09/23 09:46:32;;;;;;;16.83;11.23;;;20.00;99.90;;;;;;10132476;29;20232;-82
2022/09/23 09:51:36;;;;;;;13.73;10.30;;;20.30;99.90;;;;;;10132456;29;20263;-82
2022/09/23 09:56:40;;;;;;;11.45;9.68;;;20.20;99.90;;;;;;10133264;29;20757;-82
2022/09/23 10:01:45;;;;;;;14.40;11.45;;;20.20;99.90;;;;;;10122202;29;20259;-82
2022/09/23 10:07:06;;;;;;;13.30;10.90;;;20.60;99.90;;;;;;10114252;29;20232;-82
2022/09/23 10:12:23;;;;;;;15.02;11.32;;;20.80;99.90;;;;;;10131925;29;20236;-86
2022/09/23 10:17:32;;;;;;;12.15;10.63;;;20.80;99.90;;;;;;10131402;29;20235;-83
2022/09/23 10:22:39;;;;;;;15.10;10.80;;;20.50;99.90;;;;;;10112546;29;20711;-82
2022/09/23 10:27:44;;;;;;;14.45;11.70;;;20.50;99.90;;;;;;10097319;29;22061;-80
2022/09/23 10:32:47;;;;;;;8.68;6.20;;;20.10;99.90;;;;;;10128960;29;20266;-82
2022/09/23 10:37:50;;;;;;;14.40;11.77;;;20.10;99.10;;;;;;10115026;29;20243;-82
2022/09/23 10:49:17;;;;;;;8.57;2.75;;;20.30;99.90;;;;;;10129165;29;20647;-82
2022/09/23 10:54:27;;;;;;;4.20;2.70;;;19.20;91.00;;;;;;10110744;29;20264;-82
2022/09/23 10:59:35;;;;;;;10.27;7.37;;;15.20;99.90;;;;;;10113110;29;20733;-82
2022/09/23 11:04:37;;;;;;;2.97;2.67;;;15.40;99.90;;;;;;10109382;29;20264;-81
2022/09/23 11:09:59;;;;;;;1.93;1.70;;;17.40;97.40;;;;;;9791225;29;9999845;-83
2022/09/23 11:15:23;;;;;;;6.30;2.10;;;15.00;99.30;;;;;;10127495;29;20245;-82
2022/09/23 11:20:55;;;;;;;3.53;2.00;;;14.50;99.90;;;;;;10123341;29;20317;-83
2022/09/23 11:26:13;;;;;;;2.20;1.57;;;16.80;99.90;;;;;;10123553;29;20300;-83
2022/09/23 11:31:46;;;;;;;1.67;1.23;;;14.80;99.90;;;;;;10103975;29;20653;-82
2022/09/23 11:37:04;;;;;;;4.73;3.90;;;14.70;99.90;;;;;;10107695;29;20750;-81
2022/09/23 11:42:16;;;;;;;6.70;2.50;;;17.40;99.90;;;;;;10112229;29;20280;-81
2022/09/23 11:47:28;;;;;;;3.43;1.60;;;18.30;98.20;;;;;;10113026;29;20327;-81
2022/09/23 11:52:36;;;;;;;5.07;2.10;;;18.70;96.10;;;;;;10099426;29;20280;-81
2022/09/23 11:57:44;;;;;;;2.33;1.90;;;19.20;94.50;;;;;;10072212;29;20719;-81
2022/09/23 12:02:55;;;;;;;4.27;1.80;;;19.40;93.70;;;;;;10072128;29;20316;-82
2022/09/23 12:08:16;;;;;;;2.20;1.80;;;19.50;90.00;;;;;;10072633;29;20284;-81
2022/09/23 12:13:36;;;;;;;3.63;1.77;;;19.60;90.60;;;;;;9753359;29;10000232;-81
2022/09/23 12:18:44;;;;;;;4.17;2.37;;;19.70;92.20;;;;;;10089378;29;20718;-81
2022/09/23 12:24:16;;;;;;;3.07;1.90;;;19.90;91.70;;;;;;10071960;29;20708;-81
2022/09/23 12:29:24;;;;;;;2.13;1.90;;;20.00;91.30;;;;;;9930659;29;20950;-81
2022/09/23 12:34:34;;;;;;;2.50;1.90;;;20.00;90.90;;;;;;9916189;29;20294;-81
2022/09/23 12:39:38;;;;;;;2.80;2.15;;;20.00;84.50;;;;;;9931137;29;21021;-81
2022/09/23 12:44:43;;;;;;;1.43;1.17;;;20.20;90.40;;;;;;9932387;29;20255;-82
2022/09/23 12:49:47;;;;;;;1.73;1.60;;;20.20;85.10;;;;;;9931537;29;20357;-81
2022/09/23 12:54:50;;;;;;;22.80;4.05;;;20.00;90.60;;;;;;9930547;29;20830;-82
2022/09/23 12:59:54;;;;;;;146.15;13.60;;;20.40;89.10;;;;;;9901029;29;20365;-82
2022/09/23 13:10:43;;;;;;;102.75;13.18;;;21.20;71.40;;;;;;10081859;29;20280;-82
2022/09/23 13:15:46;;;;;;;76.07;12.65;;;22.00;68.60;;;;;;10078475;29;20264;-82
2022/09/23 13:20:51;;;;;;;35.90;7.35;;;22.70;66.30;;;;;;10033407;29;20305;-80
2022/09/23 13:25:57;;;;;;;34.72;8.73;;;23.00;59.30;;;;;;10049894;29;20281;-82
2022/09/23 13:31:05;;;;;;;34.55;9.02;;;23.30;61.00;;;;;;10053852;29;20775;-83
2022/09/23 13:36:14;;;;;;;27.60;8.77;;;23.20;61.80;;;;;;10070940;29;20285;-81
2022/09/23 13:41:17;;;;;;;28.80;8.80;;;23.40;61.80;;;;;;10052128;29;20257;-81
2022/09/23 13:46:22;;;;;;;20.02;8.88;;;23.50;61.90;;;;;;10042106;29;20262;-82
2022/09/23 13:51:32;;;;;;;18.10;5.90;;;23.60;62.20;;;;;;10061050;29;20256;-81
2022/09/23 13:56:35;;;;;;;17.35;7.32;;;23.40;60.20;;;;;;10092940;29;20622;-81
2022/09/23 14:01:38;;;;;;;14.63;7.22;;;23.40;61.00;;;;;;10085605;29;20260;-81
2022/09/23 14:06:40;;;;;;;12.20;7.47;;;23.40;61.40;;;;;;10095366;29;20257;-81
2022/09/23 14:11:43;;;;;;;13.27;8.02;;;23.40;62.00;;;;;;10095934;29;20244;-81
2022/09/23 14:16:48;;;;;;;11.35;8.13;;;23.50;62.20;;;;;;10129521;29;20244;-81
2022/09/23 14:21:53;;;;;;;12.80;7.68;;;23.50;62.40;;;;;;10104142;29;20264;-82
2022/09/23 14:27:02;;;;;;;12.13;7.82;;;23.50;62.70;;;;;;10095361;29;20229;-82
2022/09/23 14:32:12;;;;;;;15.13;7.88;;;23.50;63.30;;;;;;10089644;29;20253;-83
2022/09/23 14:43:03;;;;;;;12.10;7.60;;;23.40;65.10;;;;;;10070288;29;20261;-83
2022/09/23 14:48:11;;;;;;;10.63;8.30;;;23.20;65.60;;;;;;10074096;29;20292;-83
2022/09/23 14:53:22;;;;;;;9.07;8.20;;;23.10;66.60;;;;;;10074520;29;20305;-83
2022/09/23 14:58:28;;;;;;;10.50;7.47;;;23.00;67.50;;;;;;10029651;29;20663;-82
2022/09/23 15:03:30;;;;;;;8.65;7.32;;;22.00;70.40;;;;;;10033377;29;20297;-83
2022/09/23 15:08:34;;;;;;;9.88;6.97;;;22.10;72.60;;;;;;10054535;29;20225;-83
2022/09/23 15:13:44;;;;;;;3.58;2.05;;;22.20;73.20;;;;;;10053750;29;20241;-80
2022/09/23 15:18:54;;;;;;;3.55;2.25;;;21.60;68.70;;;;;;10054698;29;20241;-81
2022/09/23 15:23:57;;;;;;;3.97;2.95;;;21.70;68.00;;;;;;10029674;29;20300;-82
2022/09/23 15:29:00;;;;;;;6.25;4.03;;;22.00;67.40;;;;;;10037086;29;20297;-82
2022/09/23 15:34:04;;;;;;;4.53;3.28;;;22.10;67.30;;;;;;10051732;29;20270;-82
2022/09/23 15:39:09;;;;;;;3.72;3.42;;;22.10;67.90;;;;;;10039151;29;20270;-82
2022/09/23 15:44:14;;;;;;;4.03;3.63;;;22.10;68.10;;;;;;10066125;29;20673;-83
2022/09/23 15:49:31;;;;;;;5.13;3.75;;;22.10;68.50;;;;;;10039777;29;20237;-82
2022/09/23 15:54:34;;;;;;;5.60;4.32;;;22.20;69.00;;;;;;10028822;29;20273;-81
2022/09/23 15:59:37;;;;;;;4.90;4.45;;;22.20;69.20;;;;;;10050035;29;20237;-82
2022/09/23 16:04:39;;;;;;;5.88;4.60;;;22.20;69.50;;;;;;10054855;29;20325;-82
2022/09/23 16:09:42;;;;;;;5.05;4.45;;;22.20;69.90;;;;;;10069156;29;20276;-81
2022/09/23 16:14:44;;;;;;;5.60;5.10;;;22.20;70.40;;;;;;10052419;29;20241;-83
2022/09/23 16:19:47;;;;;;;4.78;4.28;;;22.20;71.00;;;;;;10053525;29;20317;-83
2022/09/23 16:24:49;;;;;;;5.28;4.78;;;22.10;71.70;;;;;;10030332;29;20253;-82
2022/09/23 16:29:51;;;;;;;8.48;4.57;;;22.00;72.30;;;;;;10025493;29;20229;-82
2022/09/23 16:34:56;;;;;;;5.85;4.88;;;22.00;72.90;;;;;;10053094;29;20237;-82
2022/09/23 16:39:59;;;;;;;5.38;4.88;;;21.90;73.70;;;;;;10049624;29;20308;-82
2022/09/23 16:45:02;;;;;;;5.57;5.05;;;21.90;74.40;;;;;;10034710;29;20305;-82
2022/09/23 16:50:05;;;;;;;6.13;5.32;;;21.80;75.10;;;;;;10072737;29;20233;-82
2022/09/23 16:55:10;;;;;;;5.50;5.00;;;21.70;75.90;;;;;;10070640;29;20260;-82
2022/09/23 17:05:35;;;;;;;6.20;5.60;;;21.60;77.40;;;;;;10049412;29;20308;-82
2022/09/23 17:10:38;;;;;;;6.43;5.38;;;21.50;78.10;;;;;;10056933;29;20297;-82
2022/09/23 17:15:41;;;;;;;6.68;5.97;;;21.40;78.90;;;;;;10072499;29;20292;-82
2022/09/23 17:20:43;;;;;;;6.75;5.38;;;21.40;79.60;;;;;;10073244;29;20288;-82
2022/09/23 17:25:49;;;;;;;6.75;6.05;;;21.40;80.10;;;;;;10053575;29;20246;-82
2022/09/23 17:30:59;;;;;;;6.80;5.88;;;21.30;80.70;;;;;;10068004;29;20299;-82
2022/09/23 17:36:06;;;;;;;6.80;6.15;;;21.30;81.10;;;;;;10051726;29;20242;-83
2022/09/23 17:41:09;;;;;;;7.90;6.68;;;21.20;81.50;;;;;;10034261;29;20253;-82
2022/09/23 17:46:16;;;;;;;8.45;6.40;;;21.20;82.00;;;;;;10040920;29;20227;-82
2022/09/23 17:51:20;;;;;;;8.02;7.18;;;21.20;82.30;;;;;;10053604;29;20269;-82
2022/09/23 17:56:25;;;;;;;9.63;7.93;;;21.10;82.70;;;;;;10095267;29;20229;-84
2022/09/23 18:01:27;;;;;;;10.02;7.93;;;21.10;82.90;;;;;;10085552;29;20247;-83
2022/09/23 18:06:34;;;;;;;10.07;8.60;;;21.10;83.00;;;;;;10076655;29;20228;-87
2022/09/23 18:11:42;;;;;;;11.60;8.50;;;21.10;83.20;;;;;;10075415;29;20300;-83
2022/09/23 18:16:55;;;;;;;13.82;8.30;;;21.10;83.70;;;;;;10092168;29;20237;-82
2022/09/23 18:22:00;;;;;;;11.90;9.43;;;21.10;83.40;;;;;;10079337;29;20380;-85
2022/09/23 18:27:05;;;;;;;15.80;9.25;;;21.10;83.50;;;;;;10094805;29;20266;-82
2022/09/23 18:32:10;;;;;;;33.53;20.40;;;21.00;83.90;;;;;;10089411;29;20232;-81
2022/09/23 18:37:16;;;;;;;16.63;11.40;;;10.30;99.90;;;;;;10097977;29;20992;-80
2022/09/23 18:42:19;;;;;;;18.73;11.18;;;18.10;99.90;;;;;;9754280;29;9999911;-81
2022/09/23 18:52:43;;;;;;;19.85;13.57;;;20.40;97.50;;;;;;10045051;29;20273;-82
2022/09/23 18:57:46;;;;;;;19.27;12.32;;;20.60;95.90;;;;;;10094801;29;20228;-81
2022/09/23 19:02:51;;;;;;;22.85;14.05;;;20.70;95.00;;;;;;10073360;29;20261;-81
2022/09/23 19:07:53;;;;;;;20.50;14.73;;;20.80;94.40;;;;;;10089701;29;20296;-81
2022/09/23 19:12:56;;;;;;;20.15;14.43;;;20.70;94.00;;;;;;10075170;29;20225;-82
2022/09/23 19:17:59;;;;;;;22.27;15.70;;;20.80;93.60;;;;;;10091437;29;20236;-82
2022/09/23 19:23:01;;;;;;;26.00;14.80;;;20.80;93.40;;;;;;10072518;29;20264;-82
2022/09/23 19:28:07;;;;;;;24.88;15.02;;;20.80;93.10;;;;;;10086942;29;20264;-82
2022/09/23 19:33:12;;;;;;;19.55;14.18;;;20.80;92.80;;;;;;10065790;29;20240;-82
2022/09/23 19:38:16;;;;;;;22.75;15.15;;;20.80;92.70;;;;;;10074084;29;20635;-82
2022/09/23 19:43:19;;;;;;;18.45;14.45;;;20.70;92.60;;;;;;10095170;29;20268;-82
2022/09/23 19:48:22;;;;;;;22.83;15.10;;;20.80;92.50;;;;;;10085214;29;20232;-82
2022/09/23 19:53:25;;;;;;;20.10;14.50;;;20.70;92.30;;;;;;10057452;29;20277;-82
2022/09/23 19:58:30;;;;;;;23.40;15.18;;;20.80;92.20;;;;;;10050230;29;20245;-82
2022/09/23 20:03:33;;;;;;;22.85;14.25;;;20.70;92.10;;;;;;10049156;29;20309;-82
2022/09/23 20:08:36;;;;;;;21.23;15.27;;;20.70;92.10;;;;;;10030830;29;20713;-81
2022/09/23 20:13:41;;;;;;;23.13;15.38;;;20.80;92.00;;;;;;10019477;29;20293;-82
2022/09/23 20:18:45;;;;;;;20.95;14.05;;;20.70;92.10;;;;;;10032116;29;21036;-81
2022/09/23 20:23:54;;;;;;;21.13;14.52;;;20.60;92.20;;;;;;10048657;29;20249;-82
2022/09/23 20:29:00;;;;;;;21.88;14.95;;;20.60;92.10;;;;;;10073033;29;20987;-82
2022/09/23 20:34:06;;;;;;;20.75;14.45;;;20.60;92.10;;;;;;10054180;29;20677;-83
2022/09/23 20:39:09;;;;;;;20.83;15.23;;;20.60;92.10;;;;;;10049934;29;20281;-82
2022/09/23 20:44:12;;;;;;;21.60;14.73;;;20.60;92.20;;;;;;10047505;29;20651;-82
2022/09/23 20:49:16;;;;;;;22.98;14.73;;;20.60;92.10;;;;;;9998485;29;20238;-81
2022/09/23 20:54:18;;;;;;;19.02;13.30;;;20.60;92.10;;;;;;10055739;29;20315;-82
2022/09/23 20:59:21;;;;;;;17.45;13.30;;;20.60;92.10;;;;;;10035252;29;20727;-82
2022/09/23 21:04:24;;;;;;;20.95;14.20;;;20.60;92.00;;;;;;10045688;29;20281;-82
2022/09/23 21:09:29;;;;;;;17.65;13.95;;;20.50;92.30;;;;;;10044931;29;20306;-82
2022/09/23 21:14:32;;;;;;;19.90;13.93;;;20.50;92.10;;;;;;10047605;29;20241;-81
2022/09/23 21:19:36;;;;;;;19.50;14.27;;;20.50;92.20;;;;;;10034200;29;20333;-82
2022/09/23 21:24:39;;;;;;;26.75;17.45;;;20.50;92.20;;;;;;10044211;29;20789;-84
2022/09/23 21:30:06;;;;;;;21.67;13.23;;;14.00;99.90;;;;;;10021076;29;20651;-83
2022/09/23 21:35:09;;;;;;;22.70;13.70;;;;;;;;;;10056957;29;20676;-83
2022/09/23 21:45:32;;;;;;;16.23;11.87;;;19.80;99.80;;;;;;10058564;29;20301;-83
2022/09/23 21:50:39;;;;;;;19.92;13.02;;;20.20;98.10;;;;;;10044149;29;20251;-83
2022/09/23 21:55:41;;;;;;;20.00;13.00;;;20.20;97.30;;;;;;10097084;29;20240;-81
2022/09/23 22:00:44;;;;;;;18.48;12.90;;;20.30;96.70;;;;;;10082498;29;20239;-82
2022/09/23 22:05:47;;;;;;;18.48;13.23;;;20.30;96.30;;;;;;10084521;29;20250;-82
2022/09/23 22:10:49;;;;;;;15.20;12.25;;;20.30;96.10;;;;;;10099119;29;20201;-81
2022/09/23 22:15:52;;;;;;;18.05;13.60;;;20.30;95.90;;;;;;10065254;29;20261;-81
2022/09/23 22:20:57;;;;;;;18.48;12.40;;;20.30;95.80;;;;;;10097835;29;20771;-82
2022/09/23 22:25:59;;;;;;;18.30;13.00;;;20.30;95.60;;;;;;10097647;29;20265;-82
2022/09/23 22:36:26;;;;;;;18.20;12.45;;;20.30;95.20;;;;;;10080046;29;20708;-82
2022/09/23 22:41:28;;;;;;;18.70;13.13;;;20.40;95.10;;;;;;10097134;29;20209;-82
2022/09/23 22:46:34;;;;;;;16.38;12.02;;;20.40;94.90;;;;;;10098131;29;20328;-81
2022/09/23 22:51:41;;;;;;;15.77;12.77;;;20.40;94.80;;;;;;10127163;29;20268;-81
2022/09/23 22:56:43;;;;;;;18.05;13.65;;;20.40;94.80;;;;;;10088534;29;20245;-82
2022/09/23 23:01:46;;;;;;;18.02;12.63;;;20.40;94.60;;;;;;10079855;29;20237;-82
2022/09/23 23:06:48;;;;;;;18.38;12.77;;;20.40;94.60;;;;;;10097120;29;20201;-82
2022/09/23 23:11:51;;;;;;;17.45;12.05;;;20.30;94.60;;;;;;10097449;29;20360;-82
2022/09/23 23:16:53;;;;;;;17.35;12.55;;;20.30;94.50;;;;;;10119686;29;20205;-82
2022/09/23 23:21:56;;;;;;;17.38;12.70;;;20.30;94.40;;;;;;10079087;29;20205;-81
2022/09/23 23:26:58;;;;;;;15.93;11.70;;;20.30;94.40;;;;;;10080298;29;20276;-81
2022/09/23 23:32:01;;;;;;;20.55;11.95;;;20.30;94.60;;;;;;10095797;29;20197;-82
2022/09/23 23:37:04;;;;;;;18.02;13.43;;;20.20;94.60;;;;;;10095269;29;20309;-82
2022/09/23 23:42:06;;;;;;;16.58;13.18;;;20.20;94.60;;;;;;10078085;29;20210;-82
2022/09/23 23:47:09;;;;;;;15.70;12.10;;;20.20;94.50;;;;;;10079171;29;20201;-81
2022/09/23 23:52:11;;;;;;;15.40;11.88;;;20.30;94.40;;;;;;10088925;29;20903;-81
2022/09/23 23:57:14;;;;;;;17.38;12.60;;;20.30;94.30;;;;;;10034427;29;20234;-82
